Time;durP1;ratioP1;P1;durP2;ratioP2;P2;SDS_P1;SDS_P2;PMS_P1;PMS_P2;Temp;Humidity;BMP_temperature;BMP_pressure;BME280_temperature;BME280_humidity;BME280_pressure;Samples;Min_cycle;Max_cycle;Signal;HPM_P1;HPM_P2
2021/05/18 00:01:29;;;;;;;5.20;3.35;;;;;;;16.16;79.99;100023.59;1751339;82;20993;-75
2021/05/18 00:03:56;;;;;;;5.67;3.27;;;;;;;16.14;80.09;100019.83;1751621;82;21020;-71
2021/05/18 00:06:23;;;;;;;4.60;3.05;;;;;;;16.15;80.17;100018.83;1751500;82;20866;-74
2021/05/18 00:11:44;;;;;;;6.70;2.90;;;;;;;16.16;80.30;100016.56;1739715;82;21599;-75
2021/05/18 00:14:20;;;;;;;4.03;3.12;;;;;;;16.17;80.32;100005.61;1734850;82;20950;-77
2021/05/18 00:16:48;;;;;;;5.83;2.98;;;;;;;16.18;80.36;100000.20;1734949;82;20930;-73
2021/05/18 00:19:16;;;;;;;4.83;2.80;;;;;;;16.20;80.55;100003.99;1734914;82;20990;-75
2021/05/18 00:21:43;;;;;;;2.98;2.67;;;;;;;16.23;80.63;99999.76;1735054;82;21063;-76
2021/05/18 00:24:10;;;;;;;6.17;2.67;;;;;;;16.27;80.54;99989.32;1734817;82;20994;-77
2021/05/18 00:26:37;;;;;;;5.22;2.70;;;;;;;16.31;80.52;99988.02;1734829;82;20945;-76
2021/05/18 00:29:05;;;;;;;2.98;2.67;;;;;;;16.35;80.64;99988.88;1735006;82;20973;-77
2021/05/18 00:31:32;;;;;;;4.72;3.20;;;;;;;16.39;80.69;99981.53;1735055;82;21496;-76
2021/05/18 00:34:00;;;;;;;3.77;2.83;;;;;;;16.44;80.69;99976.64;1735060;82;20998;-76
2021/05/18 00:36:27;;;;;;;4.70;2.55;;;;;;;16.47;80.64;99980.74;1734716;82;20962;-77
2021/05/18 00:38:55;;;;;;;3.00;2.70;;;;;;;16.47;80.42;99978.95;1734852;82;21535;-77
2021/05/18 00:41:22;;;;;;;5.42;2.90;;;;;;;16.47;80.18;99972.40;1735016;82;21013;-76
2021/05/18 00:43:49;;;;;;;6.08;3.12;;;;;;;16.48;80.11;99974.53;1734785;82;20941;-75
2021/05/18 00:46:18;;;;;;;3.00;2.67;;;;;;;16.47;80.29;99971.09;1734694;82;21076;-75
2021/05/18 00:48:56;;;;;;;3.20;2.90;;;;;;;16.45;80.12;99967.81;1735728;82;20946;-75
2021/05/18 00:51:14;;;;;;;2.87;2.52;;;;;;;16.44;80.14;99962.23;1733747;82;20926;-76
2021/05/18 00:53:42;;;;;;;5.67;2.52;;;;;;;16.44;80.36;99964.86;1735088;82;20957;-76
2021/05/18 00:58:47;;;;;;;6.05;3.20;;;;;;;16.43;80.33;99963.72;1735500;82;21088;-76
2021/05/18 01:01:19;;;;;;;5.35;3.27;;;;;;;16.41;80.39;99953.38;1735286;82;20910;-78
2021/05/18 01:03:50;;;;;;;5.28;3.12;;;;;;;16.39;80.50;99947.49;1734795;82;21405;-77
2021/05/18 01:06:19;;;;;;;5.30;3.30;;;;;;;16.39;80.55;99948.80;1734706;82;21678;-72
2021/05/18 01:08:48;;;;;;;4.05;3.00;;;;;;;16.38;80.58;99944.05;1735036;82;20930;-77
2021/05/18 01:11:20;;;;;;;4.40;2.65;;;;;;;16.39;80.53;99938.33;1734552;82;21074;-75
2021/05/18 01:13:47;;;;;;;3.63;2.73;;;;;;;16.39;80.44;99942.25;1735086;82;20859;-76
2021/05/18 01:16:14;;;;;;;6.00;2.80;;;;;;;16.37;80.31;99942.39;1734963;82;20969;-73
2021/05/18 01:18:44;;;;;;;4.78;2.62;;;;;;;16.36;80.27;99937.33;1734879;82;21562;-72
2021/05/18 01:21:12;;;;;;;7.10;2.87;;;;;;;16.34;80.31;99947.95;1734909;82;20981;-74
2021/05/18 01:23:39;;;;;;;5.62;2.92;;;;;;;16.32;80.40;99943.84;1735018;82;21691;-76
2021/05/18 01:26:07;;;;;;;3.30;2.90;;;;;;;16.30;80.48;99937.95;1734795;82;20858;-72
2021/05/18 01:28:34;;;;;;;4.42;2.95;;;;;;;16.27;80.47;99935.13;1734825;82;21271;-75
2021/05/18 01:31:04;;;;;;;5.35;2.65;;;;;;;16.23;80.55;99929.89;1734807;82;20969;-75
2021/05/18 01:33:31;;;;;;;5.12;2.90;;;;;;;16.21;80.67;99927.91;1735023;82;20985;-73
2021/05/18 01:35:59;;;;;;;5.53;2.77;;;;;;;16.19;80.63;99932.48;1734900;82;20950;-75
2021/05/18 01:38:40;;;;;;;3.42;3.00;;;;;;;16.19;80.74;99923.80;1734753;82;21061;-74
2021/05/18 01:43:51;;;;;;;4.75;3.22;;;;;;;16.13;80.91;99919.19;1735044;82;20918;-76
2021/05/18 01:46:20;;;;;;;6.12;3.05;;;;;;;16.10;80.86;99924.25;1735201;82;20946;-75
2021/05/18 01:48:58;;;;;;;4.33;2.60;;;;;;;16.11;80.87;99919.84;1734927;82;21531;-74
2021/05/18 01:51:36;;;;;;;4.10;2.77;;;;;;;16.13;80.86;99920.50;1733960;82;21017;-73
2021/05/18 01:54:22;;;;;;;5.75;2.90;;;;;;;16.15;80.87;99917.23;1734881;82;20941;-73
2021/05/18 01:56:52;;;;;;;3.98;2.98;;;;;;;16.17;80.86;99914.81;1733769;82;21042;-73
2021/05/18 01:59:23;;;;;;;3.02;2.67;;;;;;;16.18;80.87;99922.15;1734740;82;21520;-76
2021/05/18 02:01:58;;;;;;;7.72;2.92;;;;;;;16.19;80.90;99922.49;1714309;82;21160;-76
2021/05/18 02:04:35;;;;;;;4.50;2.50;;;;;;;16.21;80.99;99928.41;1734866;82;20930;-76
2021/05/18 02:07:11;;;;;;;3.25;2.80;;;;;;;16.21;81.08;99926.59;1714830;82;21484;-77
2021/05/18 02:09:38;;;;;;;4.00;3.05;;;;;;;16.23;81.18;99925.14;1734687;82;21036;-73
2021/05/18 02:12:08;;;;;;;3.27;2.70;;;;;;;16.25;81.25;99933.66;1744687;82;20985;-74
2021/05/18 02:14:38;;;;;;;3.02;2.37;;;;;;;16.25;81.33;99931.86;1751213;82;20925;-73
2021/05/18 02:17:27;;;;;;;3.95;3.15;;;;;;;16.25;81.48;99929.73;1749573;82;21020;-76
2021/05/18 02:25:11;;;;;;;3.92;3.42;;;;;;;16.20;82.29;99929.38;1751191;82;20984;-73
2021/05/18 02:27:50;;;;;;;4.40;2.95;;;;;;;16.14;82.75;99931.31;1748905;80;21615;-72
2021/05/18 02:30:17;;;;;;;3.85;3.10;;;;;;;16.11;83.17;99923.28;1751391;82;20901;-73
2021/05/18 02:32:45;;;;;;;3.17;2.62;;;;;;;16.11;83.43;99913.30;1751217;82;20854;-72
2021/05/18 02:35:29;;;;;;;5.35;3.80;;;;;;;16.14;83.63;99907.75;1750341;82;21017;-75
2021/05/18 02:37:57;;;;;;;3.67;3.37;;;;;;;16.17;83.80;99909.58;1751429;82;21565;-75
2021/05/18 02:40:27;;;;;;;4.05;3.65;;;;;;;16.19;83.87;99902.37;1751404;82;21653;-73
2021/05/18 02:42:54;;;;;;;4.37;3.42;;;;;;;16.24;83.85;99912.40;1750917;82;21582;-76
2021/05/18 02:45:36;;;;;;;5.25;3.58;;;;;;;16.27;83.81;99921.25;1751106;82;20893;-73
2021/05/18 02:50:45;;;;;;;6.33;4.00;;;;;;;16.31;83.81;99922.55;1751364;82;20988;-77
2021/05/18 02:53:12;;;;;;;5.08;3.72;;;;;;;16.31;83.89;99928.62;1751210;82;21081;-73
2021/05/18 02:55:54;;;;;;;4.28;3.62;;;;;;;16.34;83.99;99926.17;1723930;82;20941;-72
2021/05/18 02:58:13;;;;;;;4.30;3.90;;;;;;;16.35;84.10;99925.20;1749731;82;20937;-73
2021/05/18 03:00:40;;;;;;;5.22;3.80;;;;;;;16.37;84.24;99927.99;1751295;82;21285;-76
2021/05/18 03:03:08;;;;;;;5.72;3.95;;;;;;;16.39;84.35;99927.37;1751175;81;21474;-78
2021/05/18 03:05:35;;;;;;;7.03;4.50;;;;;;;16.38;84.50;99930.13;1751201;82;21085;-69
2021/05/18 03:08:04;;;;;;;3.65;3.35;;;;;;;16.36;85.00;99919.00;1750605;82;20980;-77
2021/05/18 03:10:31;;;;;;;5.40;3.80;;;;;;;16.26;85.33;99914.36;1751354;81;21046;-76
2021/05/18 03:13:00;;;;;;;4.08;3.60;;;;;;;16.23;85.76;99910.27;1751045;82;20968;-74
2021/05/18 03:15:29;;;;;;;6.22;3.20;;;;;;;16.25;85.94;99911.40;1724557;82;21008;-74
2021/05/18 03:17:58;;;;;;;4.78;3.87;;;;;;;16.23;86.04;99905.02;1751452;81;21586;-76
2021/05/18 03:20:26;;;;;;;4.15;3.85;;;;;;;16.25;86.28;99908.78;1752935;82;20889;-76
2021/05/18 03:22:54;;;;;;;4.15;3.40;;;;;;;16.26;86.44;99913.88;1754038;82;20992;-73
2021/05/18 03:25:20;;;;;;;4.35;3.92;;;;;;;16.27;86.44;99917.32;1752057;82;21033;-72
2021/05/18 03:27:48;;;;;;;5.55;4.15;;;;;;;16.28;86.43;99934.65;1752106;82;21374;-76
2021/05/18 03:30:41;;;;;;;6.22;4.00;;;;;;;16.30;86.39;99941.88;1752073;82;21083;-73
2021/05/18 03:35:38;;;;;;;6.25;4.25;;;;;;;16.31;86.27;99946.95;1751380;81;21029;-76
2021/05/18 03:38:16;;;;;;;5.17;4.35;;;;;;;16.30;86.30;99946.63;1751468;82;21057;-76
2021/05/18 03:40:36;;;;;;;4.60;4.17;;;;;;;16.33;86.34;99946.81;1749310;82;21000;-76
2021/05/18 03:43:18;;;;;;;5.05;3.98;;;;;;;16.36;86.27;99943.88;1751467;82;21136;-75
2021/05/18 03:45:35;;;;;;;3.67;3.37;;;;;;;16.39;86.24;99952.25;1747151;82;21610;-72
2021/05/18 03:53:49;;;;;;;4.65;4.25;;;;;;;16.41;86.69;99969.09;1751415;82;21016;-72
2021/05/18 04:04:33;;;;;;;7.80;6.97;;;;;;;16.50;87.02;99956.86;1751416;82;21110;-73
2021/05/18 04:20:44;;;;;;;8.25;5.70;;;;;;;16.56;86.17;99961.53;1741134;82;20950;-74
2021/05/18 04:43:24;;;;;;;6.75;5.33;;;;;;;16.52;85.75;99954.44;1741026;82;21013;-75
2021/05/18 04:52:35;;;;;;;7.35;6.33;;;;;;;16.41;85.67;99960.76;1740780;82;21594;-68
2021/05/18 05:08:40;;;;;;;5.62;5.12;;;;;;;16.51;86.17;99963.75;1740834;82;21590;-77
2021/05/18 05:16:13;;;;;;;6.35;5.00;;;;;;;16.51;84.17;99951.48;1740899;82;21722;-75
2021/05/18 05:18:40;;;;;;;7.00;5.70;;;;;;;16.50;84.34;99946.38;1740913;82;21610;-70
2021/05/18 05:21:09;;;;;;;7.10;5.08;;;;;;;16.56;84.19;99951.05;1740831;82;20910;-72
2021/05/18 05:23:36;;;;;;;8.48;6.67;;;;;;;16.59;83.67;99935.02;1740959;82;21008;-71
2021/05/18 05:26:03;;;;;;;12.37;6.45;;;;;;;16.63;83.47;99946.80;1740795;82;21044;-74
2021/05/18 05:28:30;;;;;;;10.35;7.28;;;;;;;16.65;82.71;99935.70;1740818;82;21026;-68
2021/05/18 05:30:58;;;;;;;9.10;8.20;;;;;;;16.66;82.60;99943.38;1740777;82;21077;-77
2021/05/18 05:33:25;;;;;;;13.98;7.25;;;;;;;16.64;82.07;99940.59;1740882;82;21554;-70
2021/05/18 05:35:52;;;;;;;8.43;7.62;;;;;;;16.59;82.19;99934.51;1740752;82;21061;-75
2021/05/18 05:38:20;;;;;;;8.88;7.70;;;;;;;16.55;81.92;99934.52;1740868;82;21045;-67
2021/05/18 05:40:47;;;;;;;9.88;8.03;;;;;;;16.53;82.29;99933.00;1740746;82;21868;-66
2021/05/18 05:43:14;;;;;;;9.98;6.80;;;;;;;16.56;82.42;99927.48;1740782;82;20858;-70
2021/05/18 05:45:41;;;;;;;8.18;7.30;;;;;;;16.55;82.26;99929.27;1741009;82;20961;-76
2021/05/18 05:48:08;;;;;;;9.53;6.75;;;;;;;16.54;82.69;99922.35;1741426;82;20977;-73
2021/05/18 05:50:35;;;;;;;6.62;5.92;;;;;;;16.52;82.80;99924.32;1741910;82;21000;-71
2021/05/18 05:53:02;;;;;;;8.15;7.35;;;;;;;16.52;82.71;99913.84;1741260;82;21034;-71
2021/05/18 05:55:31;;;;;;;8.10;7.40;;;;;;;16.51;82.83;99911.37;1741997;81;21557;-75
2021/05/18 05:57:58;;;;;;;10.08;6.65;;;;;;;16.49;82.37;99910.71;1741102;81;21613;-70
2021/05/18 06:00:27;;;;;;;7.87;5.37;;;;;;;16.45;82.42;99903.66;1740095;81;21511;-73
2021/05/18 06:02:54;;;;;;;9.53;6.33;;;;;;;16.45;82.72;99914.61;1726282;81;22235;-74
2021/05/18 06:05:22;;;;;;;9.05;6.22;;;;;;;16.51;82.50;99938.86;1740843;82;21096;-76
2021/05/18 06:07:49;;;;;;;12.90;6.97;;;;;;;16.52;82.04;99945.27;1740528;82;20933;-76
2021/05/18 06:10:30;;;;;;;9.63;6.03;;;;;;;16.59;82.27;99956.77;1740512;82;21032;-74
2021/05/18 06:34:04;;;;;;;7.97;7.20;;;;;;;17.09;79.17;99925.84;1690605;82;21001;-73
2021/05/18 06:42:56;;;;;;;8.90;7.00;;;;;;;17.32;77.05;99928.19;1727300;82;21124;-71
2021/05/18 06:48:26;;;;;;;11.48;6.55;;;;;;;17.32;76.47;99934.26;1727965;81;21625;-77
2021/05/18 06:50:56;;;;;;;7.80;5.75;;;;;;;17.31;75.99;99934.41;1725268;82;21101;-77
2021/05/18 06:53:23;;;;;;;7.67;5.85;;;;;;;17.28;76.06;99926.86;1737214;82;21669;-73
2021/05/18 06:55:52;;;;;;;9.53;6.40;;;;;;;17.35;76.79;99934.42;1727951;82;21112;-71
2021/05/18 07:01:08;;;;;;;9.13;5.72;;;;;;;17.46;75.37;99944.09;1738946;81;21108;-75
2021/05/18 07:03:48;;;;;;;12.03;6.35;;;;;;;17.41;75.45;99929.83;1738787;82;21016;-74
2021/05/18 07:09:05;;;;;;;10.45;6.08;;;;;;;17.32;75.72;99906.72;1738641;82;36416;-75
2021/05/18 07:11:32;;;;;;;43.15;9.68;;;;;;;17.27;76.37;99907.68;1739179;82;21077;-79
2021/05/18 07:14:00;;;;;;;18.90;8.45;;;;;;;17.34;76.53;99911.30;1714042;82;21191;-71
2021/05/18 07:16:27;;;;;;;6.65;5.17;;;;;;;17.45;75.32;99916.73;1743351;81;21081;-76
2021/05/18 07:18:57;;;;;;;8.63;5.50;;;;;;;17.51;74.79;99906.89;1743231;82;21155;-72
2021/05/18 07:21:24;;;;;;;16.15;6.42;;;;;;;17.54;75.02;99910.98;1743184;82;21069;-78
2021/05/18 07:23:52;;;;;;;53.25;10.63;;;;;;;17.69;74.79;99910.68;1743218;81;21600;-79
2021/05/18 07:26:21;;;;;;;48.20;9.45;;;;;;;17.75;72.95;99906.08;1743647;81;21028;-72
2021/05/18 07:29:02;;;;;;;41.70;7.47;;;;;;;17.72;73.65;99905.92;1725378;80;21064;-76
2021/05/18 07:31:32;;;;;;;20.95;5.80;;;;;;;17.86;73.97;99909.69;1710251;82;20996;-77
2021/05/18 07:33:59;;;;;;;20.92;6.08;;;;;;;17.99;73.03;99906.06;1740968;80;21634;-73
2021/05/18 07:36:26;;;;;;;11.35;5.65;;;;;;;18.02;72.59;99913.61;1726068;82;21658;-78
2021/05/18 07:38:53;;;;;;;38.63;7.17;;;;;;;18.06;72.14;99904.91;1726228;83;20992;-70
2021/05/18 07:41:23;;;;;;;19.10;5.50;;;;;;;18.04;72.10;99903.75;1691011;84;21033;-77
2021/05/18 07:43:51;;;;;;;22.98;5.42;;;;;;;18.03;73.03;99898.69;1694510;83;21586;-76
2021/05/18 07:46:22;;;;;;;28.12;6.00;;;;;;;18.07;72.67;99909.16;1694446;84;21591;-71
2021/05/18 08:07:28;;;;;;;6.20;3.65;;;;;;;18.22;68.92;99921.42;1680402;83;20964;-74
2021/05/18 08:10:07;;;;;;;;;;;;;;;18.20;69.65;99908.97;1682786;83;21032;-73
2021/05/18 08:12:26;;;;;;;4.92;3.50;;;;;;;18.26;70.20;99916.17;1654764;86;20239;-77
2021/05/18 08:17:35;;;;;;;4.95;3.02;;;;;;;18.27;69.17;99909.94;1683330;84;20976;-70
2021/05/18 09:47:56;;;;;;;4.20;1.50;;;;;;;20.50;53.28;99888.11;1788186;80;21634;-77
2021/05/18 10:36:12;;;;;;;1.92;0.75;;;;;;;23.78;42.66;99879.61;1787728;80;21018;-77
2021/05/18 10:38:49;;;;;;;2.70;1.17;;;;;;;23.81;38.04;99871.25;1786383;80;21959;-77
2021/05/18 10:41:27;;;;;;;5.28;0.88;;;;;;;23.67;39.52;99869.66;1785388;80;21095;-78
2021/05/18 10:44:02;;;;;;;4.10;0.88;;;;;;;23.49;34.70;99863.63;1788269;80;20899;-76
2021/05/18 10:46:34;;;;;;;4.12;0.55;;;;;;;23.27;34.68;99874.58;1788358;80;20915;-76
2021/05/18 10:49:07;;;;;;;2.12;0.57;;;;;;;23.07;34.44;99878.01;1758373;80;21110;-73
2021/05/18 10:55:31;;;;;;;12.05;0.90;;;;;;;22.92;36.76;99873.91;1788417;80;21541;-74
2021/05/18 10:58:18;;;;;;;13.32;1.10;;;;;;;23.12;34.79;99869.48;1784812;79;20981;-78
2021/05/18 11:00:46;;;;;;;7.75;0.60;;;;;;;23.19;33.79;99854.44;1772603;79;20970;-75
2021/05/18 11:03:16;;;;;;;2.05;0.60;;;;;;;23.16;32.92;99860.95;1792183;79;20907;-72
2021/05/18 11:05:47;;;;;;;4.40;0.70;;;;;;;23.05;32.60;99856.73;1770828;79;20967;-76
2021/05/18 11:08:17;;;;;;;6.78;1.00;;;;;;;22.82;32.72;99874.78;1797510;79;21064;-79
2021/05/18 11:10:47;;;;;;;6.42;0.50;;;;;;;22.97;33.49;99867.02;1797108;79;21002;-75
2021/05/18 11:13:16;;;;;;;18.02;1.15;;;;;;;23.24;33.46;99873.66;1796927;79;20923;-74
2021/05/18 11:15:43;;;;;;;16.15;1.42;;;;;;;23.29;32.57;99881.83;1796862;79;20879;-72
2021/05/18 11:18:10;;;;;;;17.82;1.10;;;;;;;23.24;32.65;99864.39;1796660;79;21083;-77
2021/05/18 11:23:21;;;;;;;1.87;0.40;;;;;;;22.83;32.60;99877.75;1796817;79;20875;-73
2021/05/18 11:26:04;;;;;;;5.60;0.80;;;;;;;22.51;32.94;99878.73;1796560;79;20970;-71
2021/05/18 11:28:37;;;;;;;10.90;1.20;;;;;;;22.22;33.85;99880.80;1796441;79;21531;-76
2021/05/18 11:31:09;;;;;;;13.60;1.40;;;;;;;21.88;40.26;99884.23;1796590;79;21014;-77
2021/05/18 11:33:40;;;;;;;19.35;1.55;;;;;;;21.51;42.78;99886.67;1796853;79;21104;-74
2021/05/18 11:36:17;;;;;;;7.33;1.23;;;;;;;21.25;42.87;99906.25;1796878;79;20995;-75
2021/05/18 11:38:54;;;;;;;5.95;0.80;;;;;;;21.16;42.66;99898.11;1796497;79;21583;-69
2021/05/18 11:41:31;;;;;;;7.28;1.15;;;;;;;21.22;43.39;99898.18;1796727;79;21069;-81
2021/05/18 11:44:13;;;;;;;5.47;1.22;;;;;;;21.42;43.65;99887.81;1796625;79;21084;-76
2021/05/18 11:46:48;;;;;;;1.05;0.75;;;;;;;21.52;43.41;99901.52;1796588;79;21243;-75
2021/05/18 11:49:19;;;;;;;28.52;2.42;;;;;;;21.57;43.99;99903.07;1794559;79;21622;-76
2021/05/18 11:51:56;;;;;;;10.15;1.77;;;;;;;21.58;44.59;99913.95;1791288;79;20977;-75
2021/05/18 11:54:28;;;;;;;6.53;0.80;;;;;;;21.47;43.91;99927.18;1773709;79;20994;-75
2021/05/18 11:56:57;;;;;;;8.25;1.17;;;;;;;21.13;43.49;99932.29;1765401;79;20867;-70
2021/05/18 11:59:26;;;;;;;15.85;2.35;;;;;;;20.73;43.92;99928.36;1757148;80;21105;-76
2021/05/18 12:02:01;;;;;;;10.72;1.25;;;;;;;20.41;44.91;99945.88;1756465;81;21092;-75
2021/05/18 12:04:29;;;;;;;15.80;1.40;;;;;;;20.07;45.80;99961.66;1756337;81;20974;-79
2021/05/18 12:07:06;;;;;;;10.23;1.70;;;;;;;19.68;46.91;99943.91;1756505;81;21033;-77
2021/05/18 12:09:38;;;;;;;12.28;1.45;;;;;;;19.28;49.43;99950.23;1756418;81;20935;-80
2021/05/18 12:12:15;;;;;;;38.75;3.30;;;;;;;18.47;51.64;99929.55;1726665;81;21087;-76
2021/05/18 12:14:50;;;;;;;20.65;1.27;;;;;;;17.15;51.59;99985.02;1757194;81;20927;-77
2021/05/18 12:17:31;;;;;;;1.82;0.47;;;;;;;15.87;59.46;99978.87;1757613;81;20982;-74
2021/05/18 12:19:59;;;;;;;2.33;0.42;;;;;;;14.69;63.43;100033.44;1757816;81;21123;-71
2021/05/18 12:22:26;;;;;;;4.78;0.50;;;;;;;13.91;68.80;100041.48;1728326;81;20910;-74
2021/05/18 12:24:57;;;;;;;4.40;0.68;;;;;;;13.42;75.69;100033.30;1756437;81;21014;-72
2021/05/18 12:27:48;;;;;;;8.98;1.10;;;;;;;12.99;82.10;99984.53;1756214;81;21006;-70
2021/05/18 12:30:18;;;;;;;2.40;0.90;;;;;;;13.00;86.77;99977.89;1755766;81;21518;-71
2021/05/18 12:32:48;;;;;;;6.05;0.90;;;;;;;13.33;90.88;99970.73;1755996;81;20902;-73
2021/05/18 12:35:20;;;;;;;6.58;0.90;;;;;;;13.57;93.05;99980.27;1755227;81;21747;-72
2021/05/18 12:37:50;;;;;;;0.57;0.50;;;;;;;13.66;92.89;99988.09;1755938;81;20974;-76
2021/05/18 12:40:31;;;;;;;0.90;0.53;;;;;;;13.65;82.63;99982.56;1756069;81;21018;-77
2021/05/18 12:43:12;;;;;;;1.42;0.60;;;;;;;13.58;83.26;99980.63;1756120;81;20970;-71
2021/05/18 12:45:41;;;;;;;0.40;0.30;;;;;;;13.85;83.88;99980.75;1755540;81;21642;-76
2021/05/18 12:48:11;;;;;;;3.75;0.57;;;;;;;14.10;85.17;99963.20;1756096;81;21032;-68
2021/05/18 12:50:47;;;;;;;3.20;0.70;;;;;;;14.13;87.78;99956.91;1756058;81;21354;-69
2021/05/18 12:53:29;;;;;;;3.67;0.65;;;;;;;13.98;89.60;99963.50;1756057;81;21022;-75
2021/05/18 12:55:57;;;;;;;5.92;0.70;;;;;;;13.93;88.44;99970.45;1756321;81;21014;-73
2021/05/18 12:58:29;;;;;;;2.87;0.50;;;;;;;13.92;88.36;99966.67;1756087;81;21045;-76
2021/05/18 13:01:11;;;;;;;3.10;0.65;;;;;;;13.91;88.81;99961.93;1756327;81;20967;-75
2021/05/18 13:03:40;;;;;;;2.47;0.90;;;;;;;13.82;89.55;99953.64;1756205;81;21666;-73
2021/05/18 13:06:07;;;;;;;4.05;0.80;;;;;;;13.88;86.84;99936.63;1755947;81;21536;-69
2021/05/18 13:08:39;;;;;;;1.50;0.70;;;;;;;14.04;87.26;99944.20;1756093;81;21480;-80
2021/05/18 13:13:56;;;;;;;0.53;0.45;;;;;;;14.40;82.26;99947.02;1756275;81;20947;-77
2021/05/18 13:16:32;;;;;;;3.70;0.70;;;;;;;14.51;83.00;99954.21;1756537;81;21165;-72
2021/05/18 13:19:09;;;;;;;2.22;0.50;;;;;;;14.58;85.06;99947.42;1756185;81;21002;-75
2021/05/18 13:21:57;;;;;;;4.28;0.70;;;;;;;14.38;87.68;99947.17;1756208;81;21013;-72
2021/05/18 13:27:09;;;;;;;1.02;0.60;;;;;;;14.37;89.26;99945.52;1756069;81;21535;-72
2021/05/18 13:29:36;;;;;;;1.32;0.55;;;;;;;15.07;89.23;99949.31;1756048;81;21952;-68
2021/05/18 13:32:04;;;;;;;2.40;0.60;;;;;;;15.91;82.64;99948.00;1756207;81;20943;-72
2021/05/18 13:34:31;;;;;;;0.62;0.40;;;;;;;16.43;75.24;99948.00;1756188;81;20939;-73
2021/05/18 13:36:58;;;;;;;2.17;0.45;;;;;;;16.69;74.10;99947.00;1756231;81;21151;-77
2021/05/18 13:39:26;;;;;;;3.80;0.47;;;;;;;16.99;72.71;99955.30;1756566;81;20946;-75
2021/05/18 13:41:53;;;;;;;0.82;0.42;;;;;;;17.34;67.44;99945.39;1756369;81;21247;-81
2021/05/18 13:44:22;;;;;;;1.22;0.37;;;;;;;17.74;67.96;99945.14;1756092;81;21022;-71
2021/05/18 13:46:49;;;;;;;1.40;0.40;;;;;;;17.92;67.14;99953.66;1756444;81;20950;-76
2021/05/18 13:49:17;;;;;;;0.57;0.40;;;;;;;17.91;65.10;99959.39;1756346;81;21536;-75
2021/05/18 13:51:46;;;;;;;2.83;0.37;;;;;;;17.82;65.88;99953.82;1756401;81;21034;-72
2021/05/18 13:54:14;;;;;;;1.90;0.50;;;;;;;17.82;64.31;99959.56;1756765;81;21158;-75
2021/05/18 13:56:41;;;;;;;1.10;0.60;;;;;;;17.87;62.86;99967.26;1757260;81;20934;-74
2021/05/18 13:59:09;;;;;;;0.40;0.35;;;;;;;18.01;62.54;99975.46;1742815;81;20917;-74
2021/05/18 14:01:36;;;;;;;1.57;0.50;;;;;;;18.12;60.38;99983.02;1712063;83;20948;-77
2021/05/18 14:04:04;;;;;;;1.25;0.60;;;;;;;18.33;57.26;99988.06;1711458;83;20956;-75
2021/05/18 14:06:32;;;;;;;2.10;0.50;;;;;;;18.40;56.92;99971.14;1711268;83;21629;-78
2021/05/18 14:09:00;;;;;;;0.98;0.40;;;;;;;18.23;58.03;99977.41;1711116;83;21079;-76
2021/05/18 14:11:27;;;;;;;1.35;0.53;;;;;;;18.07;58.87;99978.73;1711149;83;21041;-74
2021/05/18 14:13:55;;;;;;;1.95;0.75;;;;;;;17.98;59.50;99961.69;1711220;82;21155;-76
2021/05/18 14:16:22;;;;;;;2.37;0.55;;;;;;;17.93;61.02;99959.23;1711159;82;20996;-77
2021/05/18 14:18:57;;;;;;;3.65;0.82;;;;;;;18.01;61.23;99946.58;1711155;82;21036;-73
2021/05/18 14:21:25;;;;;;;0.85;0.60;;;;;;;18.22;61.42;99942.95;1711125;83;21028;-75
2021/05/18 14:24:18;;;;;;;1.75;0.60;;;;;;;18.41;61.06;99942.06;1711318;83;21037;-74
2021/05/18 14:26:40;;;;;;;1.40;0.53;;;;;;;18.58;59.76;99940.73;1710632;83;21078;-72
2021/05/18 14:29:08;;;;;;;1.65;0.60;;;;;;;18.65;59.94;99933.31;1711395;83;20996;-72
2021/05/18 14:31:35;;;;;;;0.50;0.50;;;;;;;18.79;60.90;99941.81;1711218;83;21162;-72
2021/05/18 14:34:02;;;;;;;2.77;0.70;;;;;;;19.00;60.03;99942.03;1711414;83;20972;-75
2021/05/18 14:36:29;;;;;;;1.40;0.70;;;;;;;19.20;57.94;99937.64;1711342;83;21024;-74
2021/05/18 14:38:57;;;;;;;0.50;0.33;;;;;;;19.36;58.40;99949.38;1711235;83;21024;-74
2021/05/18 14:42:51;;;;;;;1.10;0.35;;;;;;;19.51;55.46;99934.50;1711298;83;20941;-79
2021/05/18 14:44:07;;;;;;;0.35;0.30;;;;;;;19.51;55.43;99932.69;1707428;83;21470;-72
2021/05/18 14:56:54;;;;;;;0.60;0.40;;;;;;;20.27;53.08;99929.55;1711261;83;21000;-76
2021/05/18 14:59:21;;;;;;;1.15;0.60;;;;;;;20.19;52.38;99926.98;1728596;81;21020;-72
2021/05/18 15:01:48;;;;;;;1.47;0.47;;;;;;;20.25;52.28;99913.91;1724680;83;20990;-73
2021/05/18 15:04:15;;;;;;;1.05;0.60;;;;;;;20.27;52.37;99920.33;1756418;81;21539;-73
2021/05/18 15:06:43;;;;;;;2.02;0.60;;;;;;;20.20;52.15;99914.92;1724686;83;21058;-73
2021/05/18 15:09:10;;;;;;;0.65;0.50;;;;;;;20.10;52.87;99910.94;1756139;81;21802;-75
2021/05/18 15:11:38;;;;;;;2.77;0.50;;;;;;;20.04;52.52;99902.75;1724436;83;21006;-77
2021/05/18 15:14:07;;;;;;;0.20;0.20;;;;;;;19.94;52.95;99909.30;1756227;81;20897;-77
2021/05/18 15:16:35;;;;;;;0.47;0.40;;;;;;;19.86;53.25;99911.98;1756295;81;20958;-76
2021/05/18 15:19:11;;;;;;;0.62;0.47;;;;;;;19.80;54.72;99916.16;1756166;81;20907;-77
2021/05/18 15:21:34;;;;;;;2.22;0.60;;;;;;;19.84;55.32;99917.94;1754532;81;21984;-79
2021/05/18 15:24:01;;;;;;;0.42;0.40;;;;;;;19.84;54.45;99910.05;1756233;81;21624;-71
2021/05/18 15:26:28;;;;;;;0.90;0.60;;;;;;;19.85;54.55;99914.29;1756314;81;21033;-79
2021/05/18 15:28:56;;;;;;;1.85;0.50;;;;;;;19.86;55.04;99904.91;1756374;81;21735;-72
2021/05/18 15:31:24;;;;;;;1.65;0.40;;;;;;;20.18;54.51;99914.80;1756335;81;21663;-74
2021/05/18 15:33:51;;;;;;;0.93;0.55;;;;;;;20.16;54.91;99916.80;1756717;81;21889;-76
2021/05/18 15:36:19;;;;;;;0.42;0.40;;;;;;;20.07;55.02;99916.87;1757263;81;21006;-75
2021/05/18 15:38:47;;;;;;;0.40;0.40;;;;;;;19.98;55.58;99913.18;1758344;81;21006;-74
2021/05/18 15:41:15;;;;;;;1.67;0.40;;;;;;;19.94;56.02;99905.34;1756236;81;21513;-71
2021/05/18 15:43:47;;;;;;;1.35;0.50;;;;;;;19.88;55.55;99900.77;1756001;81;21584;-74
2021/05/18 15:46:15;;;;;;;1.27;0.40;;;;;;;19.83;55.88;99912.34;1756126;81;21115;-73
2021/05/18 15:48:43;;;;;;;0.50;0.40;;;;;;;19.81;54.46;99903.33;1756236;81;21013;-74
2021/05/18 15:51:10;;;;;;;0.60;0.50;;;;;;;19.76;54.08;99908.29;1756258;81;20971;-79
2021/05/18 15:53:38;;;;;;;2.45;0.50;;;;;;;19.71;53.85;99915.09;1756443;81;21392;-75
2021/05/18 15:56:07;;;;;;;1.25;0.40;;;;;;;19.62;52.56;99924.06;1756300;81;20867;-76
2021/05/18 15:58:37;;;;;;;0.95;0.40;;;;;;;19.47;53.37;99918.23;1726812;81;21119;-73
2021/05/18 16:01:04;;;;;;;3.12;0.50;;;;;;;19.41;53.62;99919.44;1722237;81;21616;-70
2021/05/18 16:03:31;;;;;;;1.82;0.68;;;;;;;19.41;53.40;99914.17;1692247;84;21584;-76
2021/05/18 16:06:03;;;;;;;1.67;0.70;;;;;;;19.43;53.93;99924.04;1711273;83;21008;-74
2021/05/18 16:11:04;;;;;;;4.55;0.62;;;;;;;19.35;52.47;99925.37;1711341;83;21137;-71
2021/05/18 16:13:33;;;;;;;0.93;0.47;;;;;;;19.27;52.51;99922.81;1711241;83;21108;-74
2021/05/18 16:16:06;;;;;;;0.57;0.40;;;;;;;19.18;53.25;99922.02;1711050;83;20969;-71
2021/05/18 16:18:34;;;;;;;1.17;0.50;;;;;;;19.09;51.93;99920.44;1711236;83;21044;-77
2021/05/18 16:21:03;;;;;;;3.10;0.55;;;;;;;19.04;49.25;99928.04;1711306;83;20976;-75
2021/05/18 16:23:33;;;;;;;1.70;0.55;;;;;;;19.03;46.24;99921.95;1711614;83;21469;-72
2021/05/18 16:26:00;;;;;;;0.85;0.40;;;;;;;19.03;44.49;99929.84;1711040;83;21055;-80
2021/05/18 16:28:27;;;;;;;1.70;0.50;;;;;;;19.02;43.96;99928.69;1711325;83;21040;-77
2021/05/18 16:30:57;;;;;;;1.17;0.72;;;;;;;18.99;44.08;99934.30;1711427;83;21067;-74
2021/05/18 16:33:25;;;;;;;1.60;0.42;;;;;;;18.94;44.74;99919.05;1711299;83;21024;-79
2021/05/18 16:35:52;;;;;;;2.05;0.45;;;;;;;18.89;44.79;99912.16;1711295;83;21082;-75
2021/05/18 16:38:19;;;;;;;0.60;0.37;;;;;;;18.87;45.14;99925.98;1711202;83;21008;-71
2021/05/18 16:40:51;;;;;;;1.07;0.33;;;;;;;18.79;45.73;99921.27;1711152;83;20973;-75
2021/05/18 16:43:16;;;;;;;1.27;0.45;;;;;;;18.71;46.14;99925.23;1710851;83;20984;-76
2021/05/18 16:45:43;;;;;;;3.12;0.50;;;;;;;18.64;46.55;99925.09;1711157;83;20929;-75
2021/05/18 16:48:12;;;;;;;0.68;0.40;;;;;;;18.60;46.99;99934.83;1711144;83;21123;-71
2021/05/18 16:50:40;;;;;;;9.35;1.32;;;;;;;18.53;47.05;99937.31;1711067;83;20993;-70
2021/05/18 16:53:09;;;;;;;4.30;0.40;;;;;;;18.44;46.59;99930.42;1711378;83;21036;-76